sensor_id;sensor_type;location;lat;lon;timestamp;temperature;humidity
57566;DHT22;63999;43.882;-0.310;2023-04-03T00:01:17;11.40;75.10
57566;DHT22;63999;43.882;-0.310;2023-04-03T00:03:43;11.40;75.00
57566;DHT22;63999;43.882;-0.310;2023-04-03T00:06:10;11.40;75.10
57566;DHT22;63999;43.882;-0.310;2023-04-03T00:08:37;11.50;75.00
57566;DHT22;63999;43.882;-0.310;2023-04-03T00:11:04;11.40;75.00
57566;DHT22;63999;43.882;-0.310;2023-04-03T00:13:30;11.40;75.10
57566;DHT22;63999;43.882;-0.310;2023-04-03T00:15:56;11.40;75.10
57566;DHT22;63999;43.882;-0.310;2023-04-03T00:18:22;11.30;75.10
57566;DHT22;63999;43.882;-0.310;2023-04-03T00:20:49;11.30;75.20
57566;DHT22;63999;43.882;-0.310;2023-04-03T00:23:15;11.30;75.20
57566;DHT22;63999;43.882;-0.310;2023-04-03T00:25:41;11.30;75.20
57566;DHT22;63999;43.882;-0.310;2023-04-03T00:28:07;11.30;75.20
57566;DHT22;63999;43.882;-0.310;2023-04-03T00:30:33;11.30;75.30
57566;DHT22;63999;43.882;-0.310;2023-04-03T00:32:59;11.20;75.40
57566;DHT22;63999;43.882;-0.310;2023-04-03T00:35:26;11.20;75.50
57566;DHT22;63999;43.882;-0.310;2023-04-03T00:37:53;11.30;75.40
57566;DHT22;63999;43.882;-0.310;2023-04-03T00:40:21;11.30;75.80
57566;DHT22;63999;43.882;-0.310;2023-04-03T00:42:50;11.30;75.20
57566;DHT22;63999;43.882;-0.310;2023-04-03T00:45:24;11.40;75.10
57566;DHT22;63999;43.882;-0.310;2023-04-03T00:47:51;11.40;75.00
57566;DHT22;63999;43.882;-0.310;2023-04-03T00:50:17;11.30;75.10
57566;DHT22;63999;43.882;-0.310;2023-04-03T00:52:43;11.30;75.40
57566;DHT22;63999;43.882;-0.310;2023-04-03T00:55:12;11.30;75.10
57566;DHT22;63999;43.882;-0.310;2023-04-03T00:57:40;11.30;75.20
57566;DHT22;63999;43.882;-0.310;2023-04-03T01:00:10;11.30;75.50
57566;DHT22;63999;43.882;-0.310;2023-04-03T01:02:38;11.30;75.30
57566;DHT22;63999;43.882;-0.310;2023-04-03T01:05:07;11.30;75.40
57566;DHT22;63999;43.882;-0.310;2023-04-03T01:07:33;11.30;75.50
57566;DHT22;63999;43.882;-0.310;2023-04-03T01:10:06;11.30;75.50
57566;DHT22;63999;43.882;-0.310;2023-04-03T01:12:35;11.40;75.20
57566;DHT22;63999;43.882;-0.310;2023-04-03T01:15:17;11.30;75.20
57566;DHT22;63999;43.882;-0.310;2023-04-03T01:17:46;11.30;75.50
57566;DHT22;63999;43.882;-0.310;2023-04-03T01:23:06;11.40;75.30
57566;DHT22;63999;43.882;-0.310;2023-04-03T01:28:07;11.30;75.60
57566;DHT22;63999;43.882;-0.310;2023-04-03T01:33:13;11.50;75.20
57566;DHT22;63999;43.882;-0.310;2023-04-03T01:35:39;11.50;75.30
57566;DHT22;63999;43.882;-0.310;2023-04-03T01:38:05;11.50;75.60
57566;DHT22;63999;43.882;-0.310;2023-04-03T01:40:31;11.60;75.60
57566;DHT22;63999;43.882;-0.310;2023-04-03T01:42:57;11.70;75.40
57566;DHT22;63999;43.882;-0.310;2023-04-03T01:45:23;11.70;75.10
57566;DHT22;63999;43.882;-0.310;2023-04-03T01:47:48;11.70;75.60
57566;DHT22;63999;43.882;-0.310;2023-04-03T01:50:14;11.70;75.50
57566;DHT22;63999;43.882;-0.310;2023-04-03T01:52:40;11.70;74.90
57566;DHT22;63999;43.882;-0.310;2023-04-03T01:55:06;11.60;75.20
57566;DHT22;63999;43.882;-0.310;2023-04-03T01:57:32;11.60;75.00
57566;DHT22;63999;43.882;-0.310;2023-04-03T01:59:58;11.50;75.00
57566;DHT22;63999;43.882;-0.310;2023-04-03T02:02:23;11.40;75.80
57566;DHT22;63999;43.882;-0.310;2023-04-03T02:04:50;11.50;76.00
57566;DHT22;63999;43.882;-0.310;2023-04-03T02:07:15;11.50;75.80
57566;DHT22;63999;43.882;-0.310;2023-04-03T02:09:41;11.70;75.80
57566;DHT22;63999;43.882;-0.310;2023-04-03T02:12:07;11.70;75.00
57566;DHT22;63999;43.882;-0.310;2023-04-03T02:14:33;11.50;75.30
57566;DHT22;63999;43.882;-0.310;2023-04-03T02:17:01;11.50;75.20
57566;DHT22;63999;43.882;-0.310;2023-04-03T02:19:30;11.50;75.70
57566;DHT22;63999;43.882;-0.310;2023-04-03T02:21:56;11.60;75.60
57566;DHT22;63999;43.882;-0.310;2023-04-03T02:24:22;11.60;75.10
57566;DHT22;63999;43.882;-0.310;2023-04-03T02:26:48;11.50;75.00
57566;DHT22;63999;43.882;-0.310;2023-04-03T02:29:14;11.40;75.70
57566;DHT22;63999;43.882;-0.310;2023-04-03T02:31:40;11.40;75.90
57566;DHT22;63999;43.882;-0.310;2023-04-03T02:34:05;11.50;75.80
57566;DHT22;63999;43.882;-0.310;2023-04-03T02:36:31;11.70;75.80
57566;DHT22;63999;43.882;-0.310;2023-04-03T02:38:57;11.70;75.20
57566;DHT22;63999;43.882;-0.310;2023-04-03T02:41:23;11.70;75.40
57566;DHT22;63999;43.882;-0.310;2023-04-03T02:43:51;11.60;75.30
57566;DHT22;63999;43.882;-0.310;2023-04-03T02:46:16;11.50;75.00
57566;DHT22;63999;43.882;-0.310;2023-04-03T02:48:42;11.50;75.20
57566;DHT22;63999;43.882;-0.310;2023-04-03T02:51:08;11.40;75.30
57566;DHT22;63999;43.882;-0.310;2023-04-03T02:53:33;11.40;75.60
57566;DHT22;63999;43.882;-0.310;2023-04-03T02:55:59;11.40;75.20
57566;DHT22;63999;43.882;-0.310;2023-04-03T02:58:25;11.30;75.30
57566;DHT22;63999;43.882;-0.310;2023-04-03T03:00:51;11.20;75.80
57566;DHT22;63999;43.882;-0.310;2023-04-03T03:03:17;11.30;75.60
57566;DHT22;63999;43.882;-0.310;2023-04-03T03:05:43;11.30;75.50
57566;DHT22;63999;43.882;-0.310;2023-04-03T03:08:08;11.20;75.50
57566;DHT22;63999;43.882;-0.310;2023-04-03T03:10:34;11.20;75.70
57566;DHT22;63999;43.882;-0.310;2023-04-03T03:13:00;11.30;75.90
57566;DHT22;63999;43.882;-0.310;2023-04-03T03:15:26;11.50;75.70
57566;DHT22;63999;43.882;-0.310;2023-04-03T03:17:52;11.40;75.30
57566;DHT22;63999;43.882;-0.310;2023-04-03T03:20:18;11.20;75.40
57566;DHT22;63999;43.882;-0.310;2023-04-03T03:22:43;11.10;75.60
57566;DHT22;63999;43.882;-0.310;2023-04-03T03:25:09;11.10;75.70
57566;DHT22;63999;43.882;-0.310;2023-04-03T03:27:35;11.10;75.70
57566;DHT22;63999;43.882;-0.310;2023-04-03T03:30:01;11.10;75.90
57566;DHT22;63999;43.882;-0.310;2023-04-03T03:32:27;11.10;75.80
57566;DHT22;63999;43.882;-0.310;2023-04-03T03:34:52;11.10;75.90
57566;DHT22;63999;43.882;-0.310;2023-04-03T03:37:18;11.00;75.90
57566;DHT22;63999;43.882;-0.310;2023-04-03T03:39:44;11.00;76.00
57566;DHT22;63999;43.882;-0.310;2023-04-03T03:42:10;11.00;75.90
57566;DHT22;63999;43.882;-0.310;2023-04-03T03:44:36;11.00;75.80
57566;DHT22;63999;43.882;-0.310;2023-04-03T03:47:02;10.90;76.00
57566;DHT22;63999;43.882;-0.310;2023-04-03T03:49:28;10.90;76.20
57566;DHT22;63999;43.882;-0.310;2023-04-03T03:51:54;10.90;76.20
57566;DHT22;63999;43.882;-0.310;2023-04-03T03:54:20;10.90;76.20
57566;DHT22;63999;43.882;-0.310;2023-04-03T03:56:46;10.90;76.10
57566;DHT22;63999;43.882;-0.310;2023-04-03T03:59:12;10.90;76.20
57566;DHT22;63999;43.882;-0.310;2023-04-03T04:01:38;10.80;76.30
57566;DHT22;63999;43.882;-0.310;2023-04-03T04:04:05;10.80;76.50
57566;DHT22;63999;43.882;-0.310;2023-04-03T04:06:30;10.80;76.50
57566;DHT22;63999;43.882;-0.310;2023-04-03T04:08:56;10.80;76.50
57566;DHT22;63999;43.882;-0.310;2023-04-03T04:11:22;10.80;76.50
57566;DHT22;63999;43.882;-0.310;2023-04-03T04:13:48;10.80;76.50
57566;DHT22;63999;43.882;-0.310;2023-04-03T04:16:14;10.80;76.50
57566;DHT22;63999;43.882;-0.310;2023-04-03T04:18:39;10.70;76.60
57566;DHT22;63999;43.882;-0.310;2023-04-03T04:21:05;10.70;76.60
57566;DHT22;63999;43.882;-0.310;2023-04-03T04:23:31;10.70;76.50
57566;DHT22;63999;43.882;-0.310;2023-04-03T04:25:57;10.70;76.50
57566;DHT22;63999;43.882;-0.310;2023-04-03T04:28:22;10.70;76.50
57566;DHT22;63999;43.882;-0.310;2023-04-03T04:30:48;10.70;76.60
57566;DHT22;63999;43.882;-0.310;2023-04-03T04:33:14;10.70;76.60
57566;DHT22;63999;43.882;-0.310;2023-04-03T04:35:42;10.70;76.70
57566;DHT22;63999;43.882;-0.310;2023-04-03T04:38:08;10.70;76.80
57566;DHT22;63999;43.882;-0.310;2023-04-03T04:40:35;10.70;76.70
57566;DHT22;63999;43.882;-0.310;2023-04-03T04:43:01;10.70;76.70
57566;DHT22;63999;43.882;-0.310;2023-04-03T04:45:27;10.70;76.70
57566;DHT22;63999;43.882;-0.310;2023-04-03T04:47:55;10.70;76.90
57566;DHT22;63999;43.882;-0.310;2023-04-03T04:50:21;10.60;76.90
57566;DHT22;63999;43.882;-0.310;2023-04-03T04:52:47;10.60;76.90
57566;DHT22;63999;43.882;-0.310;2023-04-03T04:55:12;10.60;76.90
57566;DHT22;63999;43.882;-0.310;2023-04-03T04:57:38;10.60;76.80
57566;DHT22;63999;43.882;-0.310;2023-04-03T05:00:05;10.70;76.80
57566;DHT22;63999;43.882;-0.310;2023-04-03T05:02:31;10.60;76.80
57566;DHT22;63999;43.882;-0.310;2023-04-03T05:04:57;10.60;77.00
57566;DHT22;63999;43.882;-0.310;2023-04-03T05:07:24;10.60;77.10
57566;DHT22;63999;43.882;-0.310;2023-04-03T05:09:50;10.60;77.00
57566;DHT22;63999;43.882;-0.310;2023-04-03T05:12:16;10.60;77.10
57566;DHT22;63999;43.882;-0.310;2023-04-03T05:14:42;10.50;77.10
57566;DHT22;63999;43.882;-0.310;2023-04-03T05:17:08;10.50;77.20
57566;DHT22;63999;43.882;-0.310;2023-04-03T05:19:34;10.50;77.20
57566;DHT22;63999;43.882;-0.310;2023-04-03T05:22:00;10.50;77.30
57566;DHT22;63999;43.882;-0.310;2023-04-03T05:24:25;10.50;77.30
57566;DHT22;63999;43.882;-0.310;2023-04-03T05:26:51;10.50;77.40
57566;DHT22;63999;43.882;-0.310;2023-04-03T05:29:17;10.50;77.50
57566;DHT22;63999;43.882;-0.310;2023-04-03T05:31:43;10.50;77.50
57566;DHT22;63999;43.882;-0.310;2023-04-03T05:34:09;10.50;77.60
57566;DHT22;63999;43.882;-0.310;2023-04-03T05:36:35;10.40;77.60
57566;DHT22;63999;43.882;-0.310;2023-04-03T05:39:01;10.40;77.50
57566;DHT22;63999;43.882;-0.310;2023-04-03T05:41:27;10.40;77.60
57566;DHT22;63999;43.882;-0.310;2023-04-03T05:43:52;10.40;77.50
57566;DHT22;63999;43.882;-0.310;2023-04-03T05:49:51;10.40;77.50
57566;DHT22;63999;43.882;-0.310;2023-04-03T05:52:35;10.50;77.90
57566;DHT22;63999;43.882;-0.310;2023-04-03T05:55:05;10.50;77.50
57566;DHT22;63999;43.882;-0.310;2023-04-03T05:57:38;10.50;77.30
57566;DHT22;63999;43.882;-0.310;2023-04-03T06:00:12;10.50;77.50
57566;DHT22;63999;43.882;-0.310;2023-04-03T06:02:45;10.50;77.50
57566;DHT22;63999;43.882;-0.310;2023-04-03T06:05:19;10.50;77.50
57566;DHT22;63999;43.882;-0.310;2023-04-03T06:07:56;10.40;77.60
57566;DHT22;63999;43.882;-0.310;2023-04-03T06:10:33;10.40;77.60
57566;DHT22;63999;43.882;-0.310;2023-04-03T06:19:46;10.40;77.70
57566;DHT22;63999;43.882;-0.310;2023-04-03T06:22:13;10.40;77.80
57566;DHT22;63999;43.882;-0.310;2023-04-03T06:24:54;10.40;77.80
57566;DHT22;63999;43.882;-0.310;2023-04-03T06:27:35;10.40;77.80
57566;DHT22;63999;43.882;-0.310;2023-04-03T06:30:34;10.40;78.10
57566;DHT22;63999;43.882;-0.310;2023-04-03T06:33:14;10.40;77.80
57566;DHT22;63999;43.882;-0.310;2023-04-03T06:36:04;10.40;77.90
57566;DHT22;63999;43.882;-0.310;2023-04-03T06:38:38;10.40;77.90
57566;DHT22;63999;43.882;-0.310;2023-04-03T06:41:05;10.40;77.90
57566;DHT22;63999;43.882;-0.310;2023-04-03T06:43:31;10.40;78.00
57566;DHT22;63999;43.882;-0.310;2023-04-03T06:45:58;10.40;78.00
57566;DHT22;63999;43.882;-0.310;2023-04-03T06:48:31;10.40;78.10
57566;DHT22;63999;43.882;-0.310;2023-04-03T06:51:01;10.40;78.20
57566;DHT22;63999;43.882;-0.310;2023-04-03T06:53:27;10.40;78.20
57566;DHT22;63999;43.882;-0.310;2023-04-03T06:56:04;10.40;78.00
57566;DHT22;63999;43.882;-0.310;2023-04-03T06:58:43;10.40;78.10
57566;DHT22;63999;43.882;-0.310;2023-04-03T07:01:17;10.40;78.10
57566;DHT22;63999;43.882;-0.310;2023-04-03T07:04:11;10.40;78.10
57566;DHT22;63999;43.882;-0.310;2023-04-03T07:06:54;10.40;78.30
57566;DHT22;63999;43.882;-0.310;2023-04-03T07:09:37;10.40;78.00
57566;DHT22;63999;43.882;-0.310;2023-04-03T07:12:03;10.50;77.90
57566;DHT22;63999;43.882;-0.310;2023-04-03T07:14:37;10.50;78.20
57566;DHT22;63999;43.882;-0.310;2023-04-03T07:17:07;10.40;78.30
57566;DHT22;63999;43.882;-0.310;2023-04-03T07:20:02;10.40;78.30
57566;DHT22;63999;43.882;-0.310;2023-04-03T07:22:31;10.50;78.20
57566;DHT22;63999;43.882;-0.310;2023-04-03T07:25:17;10.40;78.20
57566;DHT22;63999;43.882;-0.310;2023-04-03T07:27:53;10.50;78.00
57566;DHT22;63999;43.882;-0.310;2023-04-03T07:30:24;10.50;78.30
57566;DHT22;63999;43.882;-0.310;2023-04-03T07:33:16;10.40;78.50
57566;DHT22;63999;43.882;-0.310;2023-04-03T07:36:26;10.40;78.40
57566;DHT22;63999;43.882;-0.310;2023-04-03T07:38:56;10.40;78.30
57566;DHT22;63999;43.882;-0.310;2023-04-03T07:41:41;10.40;78.50
57566;DHT22;63999;43.882;-0.310;2023-04-03T07:44:07;10.40;78.40
57566;DHT22;63999;43.882;-0.310;2023-04-03T07:46:39;10.50;78.30
57566;DHT22;63999;43.882;-0.310;2023-04-03T07:49:24;10.50;78.30
57566;DHT22;63999;43.882;-0.310;2023-04-03T07:52:13;10.50;78.40
57566;DHT22;63999;43.882;-0.310;2023-04-03T07:54:41;10.50;78.50
57566;DHT22;63999;43.882;-0.310;2023-04-03T07:57:11;10.50;78.40
57566;DHT22;63999;43.882;-0.310;2023-04-03T07:59:53;10.50;78.60
57566;DHT22;63999;43.882;-0.310;2023-04-03T08:02:26;10.50;78.60
57566;DHT22;63999;43.882;-0.310;2023-04-03T08:04:53;10.50;78.70
57566;DHT22;63999;43.882;-0.310;2023-04-03T08:10:37;10.50;78.70
57566;DHT22;63999;43.882;-0.310;2023-04-03T08:13:34;10.70;78.20
57566;DHT22;63999;43.882;-0.310;2023-04-03T08:16:16;10.60;78.60
57566;DHT22;63999;43.882;-0.310;2023-04-03T08:18:50;10.60;78.60
57566;DHT22;63999;43.882;-0.310;2023-04-03T08:21:20;10.60;78.70
57566;DHT22;63999;43.882;-0.310;2023-04-03T08:24:10;10.60;79.00
57566;DHT22;63999;43.882;-0.310;2023-04-03T08:26:37;10.60;79.00
57566;DHT22;63999;43.882;-0.310;2023-04-03T08:29:03;10.60;79.00
57566;DHT22;63999;43.882;-0.310;2023-04-03T08:31:29;10.60;79.30
57566;DHT22;63999;43.882;-0.310;2023-04-03T08:34:00;10.60;79.40
57566;DHT22;63999;43.882;-0.310;2023-04-03T08:36:28;10.50;79.20
57566;DHT22;63999;43.882;-0.310;2023-04-03T08:38:55;10.60;79.30
57566;DHT22;63999;43.882;-0.310;2023-04-03T08:41:42;10.60;79.20
57566;DHT22;63999;43.882;-0.310;2023-04-03T08:49:49;10.70;79.10
57566;DHT22;63999;43.882;-0.310;2023-04-03T08:52:39;10.70;79.20
57566;DHT22;63999;43.882;-0.310;2023-04-03T08:55:31;10.70;78.70
57566;DHT22;63999;43.882;-0.310;2023-04-03T08:58:10;10.70;79.40
57566;DHT22;63999;43.882;-0.310;2023-04-03T09:00:54;10.70;78.90
57566;DHT22;63999;43.882;-0.310;2023-04-03T09:03:21;10.70;79.40
57566;DHT22;63999;43.882;-0.310;2023-04-03T09:08:40;10.80;79.60
57566;DHT22;63999;43.882;-0.310;2023-04-03T09:14:34;10.80;78.80
57566;DHT22;63999;43.882;-0.310;2023-04-03T09:17:14;10.90;78.70
57566;DHT22;63999;43.882;-0.310;2023-04-03T09:20:39;11.00;79.00
57566;DHT22;63999;43.882;-0.310;2023-04-03T09:22:44;11.10;79.90
57566;DHT22;63999;43.882;-0.310;2023-04-03T09:25:36;11.20;79.50
57566;DHT22;63999;43.882;-0.310;2023-04-03T09:28:02;11.40;78.40
57566;DHT22;63999;43.882;-0.310;2023-04-03T09:30:28;11.40;77.80
57566;DHT22;63999;43.882;-0.310;2023-04-03T09:32:56;11.40;78.50
57566;DHT22;63999;43.882;-0.310;2023-04-03T09:35:28;11.30;79.70
57566;DHT22;63999;43.882;-0.310;2023-04-03T09:38:01;11.50;79.30
57566;DHT22;63999;43.882;-0.310;2023-04-03T09:42:57;11.90;78.10
57566;DHT22;63999;43.882;-0.310;2023-04-03T09:45:27;11.90;78.30
57566;DHT22;63999;43.882;-0.310;2023-04-03T09:48:49;12.00;78.40
57566;DHT22;63999;43.882;-0.310;2023-04-03T09:51:43;12.10;78.20
57566;DHT22;63999;43.882;-0.310;2023-04-03T09:54:37;12.20;77.60
57566;DHT22;63999;43.882;-0.310;2023-04-03T09:57:11;12.30;76.10
57566;DHT22;63999;43.882;-0.310;2023-04-03T09:59:45;12.30;76.50
57566;DHT22;63999;43.882;-0.310;2023-04-03T10:02:57;12.20;76.40
57566;DHT22;63999;43.882;-0.310;2023-04-03T10:09:27;12.10;76.50
57566;DHT22;63999;43.882;-0.310;2023-04-03T10:12:25;12.10;76.20
57566;DHT22;63999;43.882;-0.310;2023-04-03T10:14:59;11.90;76.20
57566;DHT22;63999;43.882;-0.310;2023-04-03T10:20:42;12.00;76.50
57566;DHT22;63999;43.882;-0.310;2023-04-03T10:23:24;12.00;76.70
57566;DHT22;63999;43.882;-0.310;2023-04-03T10:46:48;12.40;74.70
57566;DHT22;63999;43.882;-0.310;2023-04-03T10:52:39;12.30;73.00
57566;DHT22;63999;43.882;-0.310;2023-04-03T10:55:34;12.10;73.80
57566;DHT22;63999;43.882;-0.310;2023-04-03T10:58:07;12.10;73.90
57566;DHT22;63999;43.882;-0.310;2023-04-03T11:00:45;12.20;74.30
57566;DHT22;63999;43.882;-0.310;2023-04-03T11:03:31;12.20;73.50
57566;DHT22;63999;43.882;-0.310;2023-04-03T11:06:09;12.20;73.90
57566;DHT22;63999;43.882;-0.310;2023-04-03T11:08:59;12.30;74.20
57566;DHT22;63999;43.882;-0.310;2023-04-03T11:11:36;12.30;73.70
57566;DHT22;63999;43.882;-0.310;2023-04-03T11:17:19;12.30;74.40
57566;DHT22;63999;43.882;-0.310;2023-04-03T11:20:13;12.50;74.20
57566;DHT22;63999;43.882;-0.310;2023-04-03T11:25:30;12.50;74.00
57566;DHT22;63999;43.882;-0.310;2023-04-03T11:28:03;12.50;74.20
57566;DHT22;63999;43.882;-0.310;2023-04-03T11:33:28;12.50;73.30
57566;DHT22;63999;43.882;-0.310;2023-04-03T11:36:06;12.40;73.80
57566;DHT22;63999;43.882;-0.310;2023-04-03T11:38:47;12.30;73.50
57566;DHT22;63999;43.882;-0.310;2023-04-03T11:41:29;12.30;74.50
57566;DHT22;63999;43.882;-0.310;2023-04-03T11:43:58;12.30;72.90
57566;DHT22;63999;43.882;-0.310;2023-04-03T11:46:55;12.30;72.80
57566;DHT22;63999;43.882;-0.310;2023-04-03T11:55:41;12.50;72.60
57566;DHT22;63999;43.882;-0.310;2023-04-03T12:00:51;12.40;73.10
57566;DHT22;63999;43.882;-0.310;2023-04-03T12:05:57;12.60;72.20
57566;DHT22;63999;43.882;-0.310;2023-04-03T12:14:14;12.70;73.10
57566;DHT22;63999;43.882;-0.310;2023-04-03T12:16:42;12.80;73.00
57566;DHT22;63999;43.882;-0.310;2023-04-03T12:19:37;12.70;73.30
57566;DHT22;63999;43.882;-0.310;2023-04-03T12:22:19;12.70;73.00
57566;DHT22;63999;43.882;-0.310;2023-04-03T12:24:49;12.80;72.70
57566;DHT22;63999;43.882;-0.310;2023-04-03T12:27:26;12.90;70.90
57566;DHT22;63999;43.882;-0.310;2023-04-03T12:30:16;13.00;69.00
57566;DHT22;63999;43.882;-0.310;2023-04-03T12:36:23;13.00;70.70
57566;DHT22;63999;43.882;-0.310;2023-04-03T12:43:04;12.80;71.90
57566;DHT22;63999;43.882;-0.310;2023-04-03T12:51:08;12.60;72.70
57566;DHT22;63999;43.882;-0.310;2023-04-03T12:53:39;12.70;72.90
57566;DHT22;63999;43.882;-0.310;2023-04-03T12:56:30;12.70;71.20
57566;DHT22;63999;43.882;-0.310;2023-04-03T12:59:25;12.80;72.80
57566;DHT22;63999;43.882;-0.310;2023-04-03T13:02:12;12.70;73.10
57566;DHT22;63999;43.882;-0.310;2023-04-03T13:04:55;12.70;73.20
57566;DHT22;63999;43.882;-0.310;2023-04-03T13:07:34;12.70;72.70
57566;DHT22;63999;43.882;-0.310;2023-04-03T13:10:18;12.70;73.30
57566;DHT22;63999;43.882;-0.310;2023-04-03T13:12:56;12.70;73.40
57566;DHT22;63999;43.882;-0.310;2023-04-03T13:15:49;12.70;72.80
57566;DHT22;63999;43.882;-0.310;2023-04-03T13:18:31;12.80;73.00
57566;DHT22;63999;43.882;-0.310;2023-04-03T13:21:18;12.80;73.10
57566;DHT22;63999;43.882;-0.310;2023-04-03T13:23:53;12.90;73.00
57566;DHT22;63999;43.882;-0.310;2023-04-03T13:26:49;12.90;72.90
57566;DHT22;63999;43.882;-0.310;2023-04-03T13:29:48;12.80;73.30
57566;DHT22;63999;43.882;-0.310;2023-04-03T13:32:34;12.90;72.90
57566;DHT22;63999;43.882;-0.310;2023-04-03T13:35:02;13.00;72.50
57566;DHT22;63999;43.882;-0.310;2023-04-03T13:37:32;12.90;72.50
57566;DHT22;63999;43.882;-0.310;2023-04-03T13:40:26;13.00;72.70
57566;DHT22;63999;43.882;-0.310;2023-04-03T13:43:16;12.90;73.00
57566;DHT22;63999;43.882;-0.310;2023-04-03T13:46:02;12.90;73.20
57566;DHT22;63999;43.882;-0.310;2023-04-03T13:48:55;13.00;72.60
57566;DHT22;63999;43.882;-0.310;2023-04-03T13:51:32;13.00;72.50
57566;DHT22;63999;43.882;-0.310;2023-04-03T13:54:35;13.00;72.50
57566;DHT22;63999;43.882;-0.310;2023-04-03T13:57:11;12.90;72.80
57566;DHT22;63999;43.882;-0.310;2023-04-03T14:00:38;12.90;72.80
57566;DHT22;63999;43.882;-0.310;2023-04-03T14:06:27;13.00;71.40
57566;DHT22;63999;43.882;-0.310;2023-04-03T14:08:57;13.00;72.40
57566;DHT22;63999;43.882;-0.310;2023-04-03T14:11:29;13.00;72.50
57566;DHT22;63999;43.882;-0.310;2023-04-03T14:14:20;13.10;72.30
57566;DHT22;63999;43.882;-0.310;2023-04-03T14:16:51;13.00;72.10
57566;DHT22;63999;43.882;-0.310;2023-04-03T14:19:42;13.00;71.60
57566;DHT22;63999;43.882;-0.310;2023-04-03T14:22:31;13.10;72.10
57566;DHT22;63999;43.882;-0.310;2023-04-03T14:25:03;13.10;72.30
57566;DHT22;63999;43.882;-0.310;2023-04-03T14:27:44;13.10;72.40
57566;DHT22;63999;43.882;-0.310;2023-04-03T14:30:22;13.10;70.40
57566;DHT22;63999;43.882;-0.310;2023-04-03T14:32:58;13.10;71.20
57566;DHT22;63999;43.882;-0.310;2023-04-03T14:36:00;13.20;71.70
57566;DHT22;63999;43.882;-0.310;2023-04-03T14:38:31;13.10;70.80
57566;DHT22;63999;43.882;-0.310;2023-04-03T14:41:17;13.20;71.80
57566;DHT22;63999;43.882;-0.310;2023-04-03T14:43:45;13.10;71.70
57566;DHT22;63999;43.882;-0.310;2023-04-03T14:46:33;13.20;71.50
57566;DHT22;63999;43.882;-0.310;2023-04-03T14:49:28;13.10;72.10
57566;DHT22;63999;43.882;-0.310;2023-04-03T14:51:58;13.00;72.40
57566;DHT22;63999;43.882;-0.310;2023-04-03T14:54:51;13.00;72.30
57566;DHT22;63999;43.882;-0.310;2023-04-03T14:57:20;13.10;72.20
57566;DHT22;63999;43.882;-0.310;2023-04-03T14:59:48;13.10;72.10
57566;DHT22;63999;43.882;-0.310;2023-04-03T15:02:36;13.10;71.40
57566;DHT22;63999;43.882;-0.310;2023-04-03T15:05:10;13.10;71.40
57566;DHT22;63999;43.882;-0.310;2023-04-03T15:07:53;13.10;72.10
57566;DHT22;63999;43.882;-0.310;2023-04-03T15:11:00;13.20;70.70
57566;DHT22;63999;43.882;-0.310;2023-04-03T15:13:37;13.20;72.10
57566;DHT22;63999;43.882;-0.310;2023-04-03T15:16:23;13.10;72.30
57566;DHT22;63999;43.882;-0.310;2023-04-03T15:19:00;13.10;72.50
57566;DHT22;63999;43.882;-0.310;2023-04-03T15:21:56;13.10;72.10
57566;DHT22;63999;43.882;-0.310;2023-04-03T15:24:31;13.10;72.30
57566;DHT22;63999;43.882;-0.310;2023-04-03T15:27:10;13.10;72.50
57566;DHT22;63999;43.882;-0.310;2023-04-03T15:29:39;13.10;72.30
57566;DHT22;63999;43.882;-0.310;2023-04-03T15:32:26;13.10;72.20
57566;DHT22;63999;43.882;-0.310;2023-04-03T15:34:54;13.30;71.00
57566;DHT22;63999;43.882;-0.310;2023-04-03T15:37:29;13.30;70.70
57566;DHT22;63999;43.882;-0.310;2023-04-03T15:39:58;13.30;71.20
57566;DHT22;63999;43.882;-0.310;2023-04-03T15:42:24;13.30;70.90
57566;DHT22;63999;43.882;-0.310;2023-04-03T15:44:56;13.30;70.60
57566;DHT22;63999;43.882;-0.310;2023-04-03T15:47:29;13.30;70.30
57566;DHT22;63999;43.882;-0.310;2023-04-03T15:50:03;13.30;72.10
57566;DHT22;63999;43.882;-0.310;2023-04-03T15:52:36;13.20;72.20
57566;DHT22;63999;43.882;-0.310;2023-04-03T15:55:10;13.20;72.20
57566;DHT22;63999;43.882;-0.310;2023-04-03T15:57:49;13.20;72.50
57566;DHT22;63999;43.882;-0.310;2023-04-03T16:00:25;13.20;72.60
57566;DHT22;63999;43.882;-0.310;2023-04-03T16:03:12;13.20;72.50
57566;DHT22;63999;43.882;-0.310;2023-04-03T16:06:29;13.20;72.60
57566;DHT22;63999;43.882;-0.310;2023-04-03T16:08:46;13.10;73.00
57566;DHT22;63999;43.882;-0.310;2023-04-03T16:11:13;13.10;72.70
57566;DHT22;63999;43.882;-0.310;2023-04-03T16:14:06;13.20;72.90
57566;DHT22;63999;43.882;-0.310;2023-04-03T16:16:50;13.20;72.70
57566;DHT22;63999;43.882;-0.310;2023-04-03T16:19:29;13.20;72.40
57566;DHT22;63999;43.882;-0.310;2023-04-03T16:24:57;13.30;72.00
57566;DHT22;63999;43.882;-0.310;2023-04-03T16:27:52;13.30;72.50
57566;DHT22;63999;43.882;-0.310;2023-04-03T16:33:21;13.30;72.50
57566;DHT22;63999;43.882;-0.310;2023-04-03T16:35:56;13.30;72.00
57566;DHT22;63999;43.882;-0.310;2023-04-03T16:38:42;13.30;72.50
57566;DHT22;63999;43.882;-0.310;2023-04-03T16:41:23;13.30;72.50
57566;DHT22;63999;43.882;-0.310;2023-04-03T16:44:27;13.30;72.40
57566;DHT22;63999;43.882;-0.310;2023-04-03T16:46:56;13.30;72.50
57566;DHT22;63999;43.882;-0.310;2023-04-03T16:49:38;13.30;72.50
57566;DHT22;63999;43.882;-0.310;2023-04-03T16:52:17;13.30;72.30
57566;DHT22;63999;43.882;-0.310;2023-04-03T16:54:49;13.30;72.80
57566;DHT22;63999;43.882;-0.310;2023-04-03T16:57:38;13.30;72.70
57566;DHT22;63999;43.882;-0.310;2023-04-03T17:00:39;13.30;72.30
57566;DHT22;63999;43.882;-0.310;2023-04-03T17:06:27;13.30;72.00
57566;DHT22;63999;43.882;-0.310;2023-04-03T17:09:05;13.40;71.40
57566;DHT22;63999;43.882;-0.310;2023-04-03T17:11:38;13.40;71.60
57566;DHT22;63999;43.882;-0.310;2023-04-03T17:14:29;13.40;72.00
57566;DHT22;63999;43.882;-0.310;2023-04-03T17:17:22;13.40;71.60
57566;DHT22;63999;43.882;-0.310;2023-04-03T17:19:57;13.30;72.10
57566;DHT22;63999;43.882;-0.310;2023-04-03T17:22:35;13.30;71.10
57566;DHT22;63999;43.882;-0.310;2023-04-03T17:28:13;13.30;71.30
57566;DHT22;63999;43.882;-0.310;2023-04-03T17:31:07;13.30;70.90
57566;DHT22;63999;43.882;-0.310;2023-04-03T17:34:17;13.30;70.50
57566;DHT22;63999;43.882;-0.310;2023-04-03T17:36:44;13.30;70.60
57566;DHT22;63999;43.882;-0.310;2023-04-03T17:39:35;13.30;70.40
57566;DHT22;63999;43.882;-0.310;2023-04-03T17:42:28;13.30;70.40
57566;DHT22;63999;43.882;-0.310;2023-04-03T17:45:10;13.30;70.10
57566;DHT22;63999;43.882;-0.310;2023-04-03T17:48:03;13.30;70.10
57566;DHT22;63999;43.882;-0.310;2023-04-03T17:53:54;13.30;70.40
57566;DHT22;63999;43.882;-0.310;2023-04-03T17:56:36;13.30;70.70
57566;DHT22;63999;43.882;-0.310;2023-04-03T17:59:17;13.30;70.80
57566;DHT22;63999;43.882;-0.310;2023-04-03T18:05:32;13.30;70.70
57566;DHT22;63999;43.882;-0.310;2023-04-03T18:08:06;13.30;70.80
57566;DHT22;63999;43.882;-0.310;2023-04-03T18:10:54;13.30;70.70